sensor_id;sensor_type;location;lat;lon;timestamp;P1;durP1;ratioP1;P2;durP2;ratioP2
38089;SDS011;23904;52.322;10.232;2022-08-01T00:00:23;8.98;;;6.82;;
38089;SDS011;23904;52.322;10.232;2022-08-01T00:02:48;10.27;;;7.95;;
38089;SDS011;23904;52.322;10.232;2022-08-01T00:05:14;9.55;;;7.25;;
38089;SDS011;23904;52.322;10.232;2022-08-01T00:07:40;8.77;;;7.88;;
38089;SDS011;23904;52.322;10.232;2022-08-01T00:10:06;7.90;;;7.00;;
38089;SDS011;23904;52.322;10.232;2022-08-01T00:12:34;11.90;;;7.70;;
38089;SDS011;23904;52.322;10.232;2022-08-01T00:15:00;9.40;;;7.13;;
38089;SDS011;23904;52.322;10.232;2022-08-01T00:17:26;8.75;;;7.63;;
38089;SDS011;23904;52.322;10.232;2022-08-01T00:19:51;11.18;;;8.23;;
38089;SDS011;23904;52.322;10.232;2022-08-01T00:22:17;10.43;;;7.50;;
38089;SDS011;23904;52.322;10.232;2022-08-01T00:24:42;11.27;;;8.00;;
38089;SDS011;23904;52.322;10.232;2022-08-01T00:27:08;9.13;;;7.55;;
38089;SDS011;23904;52.322;10.232;2022-08-01T00:29:33;9.68;;;7.53;;
38089;SDS011;23904;52.322;10.232;2022-08-01T00:31:59;8.73;;;6.95;;
38089;SDS011;23904;52.322;10.232;2022-08-01T00:34:24;11.48;;;6.95;;
38089;SDS011;23904;52.322;10.232;2022-08-01T00:36:50;8.43;;;7.00;;
38089;SDS011;23904;52.322;10.232;2022-08-01T00:39:15;7.93;;;7.18;;
38089;SDS011;23904;52.322;10.232;2022-08-01T00:41:41;10.32;;;7.40;;
38089;SDS011;23904;52.322;10.232;2022-08-01T00:44:07;10.75;;;7.40;;
38089;SDS011;23904;52.322;10.232;2022-08-01T00:46:32;8.13;;;6.30;;
38089;SDS011;23904;52.322;10.232;2022-08-01T00:48:59;10.32;;;7.68;;
38089;SDS011;23904;52.322;10.232;2022-08-01T00:51:25;15.10;;;7.07;;
38089;SDS011;23904;52.322;10.232;2022-08-01T00:53:51;12.02;;;7.25;;
38089;SDS011;23904;52.322;10.232;2022-08-01T00:56:18;8.13;;;6.80;;
38089;SDS011;23904;52.322;10.232;2022-08-01T00:58:45;9.48;;;7.72;;
38089;SDS011;23904;52.322;10.232;2022-08-01T01:01:10;12.27;;;8.23;;
38089;SDS011;23904;52.322;10.232;2022-08-01T01:03:36;9.52;;;8.18;;
38089;SDS011;23904;52.322;10.232;2022-08-01T01:06:07;10.50;;;8.35;;
38089;SDS011;23904;52.322;10.232;2022-08-01T01:09:38;11.30;;;8.40;;
38089;SDS011;23904;52.322;10.232;2022-08-01T01:14:18;12.20;;;7.22;;
38089;SDS011;23904;52.322;10.232;2022-08-01T01:16:52;10.18;;;7.57;;
38089;SDS011;23904;52.322;10.232;2022-08-01T01:19:20;13.73;;;8.77;;
38089;SDS011;23904;52.322;10.232;2022-08-01T01:22:00;10.30;;;8.05;;
38089;SDS011;23904;52.322;10.232;2022-08-01T01:24:37;9.48;;;7.50;;
38089;SDS011;23904;52.322;10.232;2022-08-01T01:27:20;10.98;;;8.23;;
38089;SDS011;23904;52.322;10.232;2022-08-01T01:29:54;12.02;;;7.25;;
38089;SDS011;23904;52.322;10.232;2022-08-01T01:35:22;8.88;;;7.78;;
38089;SDS011;23904;52.322;10.232;2022-08-01T01:37:54;12.35;;;8.85;;
38089;SDS011;23904;52.322;10.232;2022-08-01T01:40:25;11.30;;;8.25;;
38089;SDS011;23904;52.322;10.232;2022-08-01T01:42:52;15.80;;;8.02;;
38089;SDS011;23904;52.322;10.232;2022-08-01T01:45:20;11.88;;;9.98;;
38089;SDS011;23904;52.322;10.232;2022-08-01T01:47:48;10.88;;;8.02;;
38089;SDS011;23904;52.322;10.232;2022-08-01T01:50:14;9.32;;;7.80;;
38089;SDS011;23904;52.322;10.232;2022-08-01T01:52:41;11.32;;;7.93;;
38089;SDS011;23904;52.322;10.232;2022-08-01T01:55:09;10.65;;;8.30;;
38089;SDS011;23904;52.322;10.232;2022-08-01T01:57:37;11.35;;;8.07;;
38089;SDS011;23904;52.322;10.232;2022-08-01T02:00:05;11.27;;;8.52;;
38089;SDS011;23904;52.322;10.232;2022-08-01T02:02:33;15.73;;;8.60;;
38089;SDS011;23904;52.322;10.232;2022-08-01T02:05:01;10.50;;;8.05;;
38089;SDS011;23904;52.322;10.232;2022-08-01T02:07:27;10.18;;;7.75;;
38089;SDS011;23904;52.322;10.232;2022-08-01T02:09:54;10.10;;;8.32;;
38089;SDS011;23904;52.322;10.232;2022-08-01T02:12:21;12.57;;;8.20;;
38089;SDS011;23904;52.322;10.232;2022-08-01T02:14:47;13.63;;;8.73;;
38089;SDS011;23904;52.322;10.232;2022-08-01T02:17:15;11.57;;;8.13;;
38089;SDS011;23904;52.322;10.232;2022-08-01T02:19:42;10.25;;;7.93;;
38089;SDS011;23904;52.322;10.232;2022-08-01T02:22:16;12.13;;;8.70;;
38089;SDS011;23904;52.322;10.232;2022-08-01T02:25:15;8.85;;;7.90;;
38089;SDS011;23904;52.322;10.232;2022-08-01T02:30:54;9.55;;;7.32;;
38089;SDS011;23904;52.322;10.232;2022-08-01T02:33:40;13.60;;;7.82;;
38089;SDS011;23904;52.322;10.232;2022-08-01T02:36:08;10.65;;;7.38;;
38089;SDS011;23904;52.322;10.232;2022-08-01T02:38:37;7.38;;;6.10;;
38089;SDS011;23904;52.322;10.232;2022-08-01T02:41:08;7.38;;;6.00;;
38089;SDS011;23904;52.322;10.232;2022-08-01T02:43:38;12.43;;;5.15;;
38089;SDS011;23904;52.322;10.232;2022-08-01T02:46:08;7.65;;;4.78;;
38089;SDS011;23904;52.322;10.232;2022-08-01T02:48:41;8.07;;;4.53;;
38089;SDS011;23904;52.322;10.232;2022-08-01T02:51:07;5.55;;;4.30;;
38089;SDS011;23904;52.322;10.232;2022-08-01T02:53:36;4.95;;;4.22;;
38089;SDS011;23904;52.322;10.232;2022-08-01T02:56:05;4.25;;;3.85;;
38089;SDS011;23904;52.322;10.232;2022-08-01T02:58:33;5.47;;;4.07;;
38089;SDS011;23904;52.322;10.232;2022-08-01T03:01:02;8.07;;;4.70;;
38089;SDS011;23904;52.322;10.232;2022-08-01T03:03:30;5.78;;;3.92;;
38089;SDS011;23904;52.322;10.232;2022-08-01T03:05:56;5.15;;;3.63;;
38089;SDS011;23904;52.322;10.232;2022-08-01T03:08:24;5.82;;;3.55;;
38089;SDS011;23904;52.322;10.232;2022-08-01T03:10:50;4.55;;;3.70;;
38089;SDS011;23904;52.322;10.232;2022-08-01T03:13:18;3.53;;;3.13;;
38089;SDS011;23904;52.322;10.232;2022-08-01T03:15:46;5.07;;;2.92;;
38089;SDS011;23904;52.322;10.232;2022-08-01T03:18:14;4.15;;;2.80;;
38089;SDS011;23904;52.322;10.232;2022-08-01T03:20:41;2.30;;;2.00;;
38089;SDS011;23904;52.322;10.232;2022-08-01T03:23:08;4.55;;;2.50;;
38089;SDS011;23904;52.322;10.232;2022-08-01T03:25:38;2.80;;;2.20;;
38089;SDS011;23904;52.322;10.232;2022-08-01T03:28:05;3.30;;;1.80;;
38089;SDS011;23904;52.322;10.232;2022-08-01T03:30:33;2.78;;;2.00;;
38089;SDS011;23904;52.322;10.232;2022-08-01T03:33:00;2.65;;;1.63;;
38089;SDS011;23904;52.322;10.232;2022-08-01T03:35:28;2.58;;;2.05;;
38089;SDS011;23904;52.322;10.232;2022-08-01T03:37:58;2.15;;;1.50;;
38089;SDS011;23904;52.322;10.232;2022-08-01T03:40:40;3.47;;;2.00;;
38089;SDS011;23904;52.322;10.232;2022-08-01T03:43:11;2.42;;;2.20;;
38089;SDS011;23904;52.322;10.232;2022-08-01T03:45:45;5.90;;;2.15;;
38089;SDS011;23904;52.322;10.232;2022-08-01T03:48:15;4.30;;;2.55;;
38089;SDS011;23904;52.322;10.232;2022-08-01T03:50:44;3.92;;;2.85;;
38089;SDS011;23904;52.322;10.232;2022-08-01T03:53:12;4.10;;;3.15;;
38089;SDS011;23904;52.322;10.232;2022-08-01T03:55:40;4.28;;;3.45;;
38089;SDS011;23904;52.322;10.232;2022-08-01T03:58:08;5.28;;;4.43;;
38089;SDS011;23904;52.322;10.232;2022-08-01T04:00:36;6.35;;;4.43;;
38089;SDS011;23904;52.322;10.232;2022-08-01T04:03:03;6.47;;;5.22;;
38089;SDS011;23904;52.322;10.232;2022-08-01T04:05:29;8.73;;;5.78;;
38089;SDS011;23904;52.322;10.232;2022-08-01T04:07:56;8.30;;;6.18;;
38089;SDS011;23904;52.322;10.232;2022-08-01T04:10:22;6.53;;;5.82;;
38089;SDS011;23904;52.322;10.232;2022-08-01T04:12:48;7.50;;;6.55;;
38089;SDS011;23904;52.322;10.232;2022-08-01T04:15:14;6.55;;;5.88;;
38089;SDS011;23904;52.322;10.232;2022-08-01T04:17:40;7.07;;;6.35;;
38089;SDS011;23904;52.322;10.232;2022-08-01T04:20:06;8.90;;;7.07;;
38089;SDS011;23904;52.322;10.232;2022-08-01T04:22:32;8.48;;;7.10;;
38089;SDS011;23904;52.322;10.232;2022-08-01T04:24:58;8.27;;;6.57;;
38089;SDS011;23904;52.322;10.232;2022-08-01T04:27:28;7.47;;;6.68;;
38089;SDS011;23904;52.322;10.232;2022-08-01T04:29:58;8.77;;;7.95;;
38089;SDS011;23904;52.322;10.232;2022-08-01T04:32:25;8.43;;;7.63;;
38089;SDS011;23904;52.322;10.232;2022-08-01T04:34:52;6.93;;;6.22;;
38089;SDS011;23904;52.322;10.232;2022-08-01T04:37:20;6.68;;;5.93;;
38089;SDS011;23904;52.322;10.232;2022-08-01T04:39:48;6.47;;;5.03;;
38089;SDS011;23904;52.322;10.232;2022-08-01T04:42:16;6.78;;;5.20;;
38089;SDS011;23904;52.322;10.232;2022-08-01T04:44:42;5.38;;;4.82;;
38089;SDS011;23904;52.322;10.232;2022-08-01T04:47:08;5.80;;;4.75;;
38089;SDS011;23904;52.322;10.232;2022-08-01T04:49:35;7.60;;;4.85;;
38089;SDS011;23904;52.322;10.232;2022-08-01T04:52:01;9.00;;;5.28;;
38089;SDS011;23904;52.322;10.232;2022-08-01T04:54:27;6.00;;;4.47;;
38089;SDS011;23904;52.322;10.232;2022-08-01T04:56:54;6.18;;;5.03;;
38089;SDS011;23904;52.322;10.232;2022-08-01T04:59:25;5.30;;;4.50;;
38089;SDS011;23904;52.322;10.232;2022-08-01T05:04:33;7.85;;;5.68;;
38089;SDS011;23904;52.322;10.232;2022-08-01T05:06:59;9.38;;;7.72;;
38089;SDS011;23904;52.322;10.232;2022-08-01T05:09:24;9.35;;;8.38;;
38089;SDS011;23904;52.322;10.232;2022-08-01T05:11:50;12.15;;;8.93;;
38089;SDS011;23904;52.322;10.232;2022-08-01T05:14:16;13.88;;;9.25;;
38089;SDS011;23904;52.322;10.232;2022-08-01T05:16:41;10.32;;;9.23;;
38089;SDS011;23904;52.322;10.232;2022-08-01T05:19:07;11.80;;;10.40;;
38089;SDS011;23904;52.322;10.232;2022-08-01T05:21:33;12.27;;;10.20;;
38089;SDS011;23904;52.322;10.232;2022-08-01T05:23:59;14.10;;;10.93;;
38089;SDS011;23904;52.322;10.232;2022-08-01T05:26:24;11.30;;;10.10;;
38089;SDS011;23904;52.322;10.232;2022-08-01T05:28:50;14.13;;;9.88;;
38089;SDS011;23904;52.322;10.232;2022-08-01T05:31:15;12.32;;;9.60;;
38089;SDS011;23904;52.322;10.232;2022-08-01T05:33:41;12.60;;;9.60;;
38089;SDS011;23904;52.322;10.232;2022-08-01T05:36:06;11.18;;;8.88;;
38089;SDS011;23904;52.322;10.232;2022-08-01T05:38:32;10.82;;;8.10;;
38089;SDS011;23904;52.322;10.232;2022-08-01T05:40:57;11.30;;;8.35;;
38089;SDS011;23904;52.322;10.232;2022-08-01T05:43:23;9.45;;;7.57;;
38089;SDS011;23904;52.322;10.232;2022-08-01T05:45:48;8.15;;;6.32;;
38089;SDS011;23904;52.322;10.232;2022-08-01T05:48:14;8.52;;;6.70;;
38089;SDS011;23904;52.322;10.232;2022-08-01T05:50:39;10.10;;;7.07;;
38089;SDS011;23904;52.322;10.232;2022-08-01T05:53:05;10.82;;;7.30;;
38089;SDS011;23904;52.322;10.232;2022-08-01T05:55:30;10.05;;;7.05;;
38089;SDS011;23904;52.322;10.232;2022-08-01T05:57:56;9.77;;;6.03;;
38089;SDS011;23904;52.322;10.232;2022-08-01T06:00:21;7.68;;;5.50;;
38089;SDS011;23904;52.322;10.232;2022-08-01T06:02:47;8.20;;;6.38;;
38089;SDS011;23904;52.322;10.232;2022-08-01T06:05:12;7.00;;;5.78;;
38089;SDS011;23904;52.322;10.232;2022-08-01T06:07:38;9.27;;;6.20;;
38089;SDS011;23904;52.322;10.232;2022-08-01T06:10:04;6.35;;;5.15;;
38089;SDS011;23904;52.322;10.232;2022-08-01T06:12:34;6.07;;;5.22;;
38089;SDS011;23904;52.322;10.232;2022-08-01T06:15:00;5.72;;;5.10;;
38089;SDS011;23904;52.322;10.232;2022-08-01T06:17:26;5.82;;;5.10;;
38089;SDS011;23904;52.322;10.232;2022-08-01T06:19:51;8.40;;;5.30;;
38089;SDS011;23904;52.322;10.232;2022-08-01T06:22:17;5.68;;;5.03;;
38089;SDS011;23904;52.322;10.232;2022-08-01T06:24:42;5.50;;;4.00;;
38089;SDS011;23904;52.322;10.232;2022-08-01T06:27:07;4.15;;;3.00;;
38089;SDS011;23904;52.322;10.232;2022-08-01T06:29:33;3.83;;;2.83;;
38089;SDS011;23904;52.322;10.232;2022-08-01T06:31:59;5.63;;;2.80;;
38089;SDS011;23904;52.322;10.232;2022-08-01T06:34:25;4.00;;;2.38;;
38089;SDS011;23904;52.322;10.232;2022-08-01T06:36:50;5.93;;;2.50;;
38089;SDS011;23904;52.322;10.232;2022-08-01T06:39:16;3.30;;;2.60;;
38089;SDS011;23904;52.322;10.232;2022-08-01T06:41:41;4.68;;;2.67;;
38089;SDS011;23904;52.322;10.232;2022-08-01T06:44:07;9.32;;;2.60;;
38089;SDS011;23904;52.322;10.232;2022-08-01T06:46:33;3.25;;;2.38;;
38089;SDS011;23904;52.322;10.232;2022-08-01T06:48:59;3.47;;;2.58;;
38089;SDS011;23904;52.322;10.232;2022-08-01T06:51:25;3.28;;;2.47;;
38089;SDS011;23904;52.322;10.232;2022-08-01T06:53:50;5.28;;;4.28;;
38089;SDS011;23904;52.322;10.232;2022-08-01T06:56:16;3.13;;;2.63;;
38089;SDS011;23904;52.322;10.232;2022-08-01T06:58:41;3.58;;;3.03;;
38089;SDS011;23904;52.322;10.232;2022-08-01T07:01:07;4.25;;;3.00;;
38089;SDS011;23904;52.322;10.232;2022-08-01T07:03:33;4.13;;;3.17;;
38089;SDS011;23904;52.322;10.232;2022-08-01T07:05:59;3.50;;;2.78;;
38089;SDS011;23904;52.322;10.232;2022-08-01T07:08:25;4.25;;;2.95;;
38089;SDS011;23904;52.322;10.232;2022-08-01T07:10:50;3.63;;;2.90;;
38089;SDS011;23904;52.322;10.232;2022-08-01T07:13:16;4.72;;;3.47;;
38089;SDS011;23904;52.322;10.232;2022-08-01T07:15:45;4.47;;;2.85;;
38089;SDS011;23904;52.322;10.232;2022-08-01T07:18:11;3.75;;;3.20;;
38089;SDS011;23904;52.322;10.232;2022-08-01T07:20:37;5.25;;;3.55;;
38089;SDS011;23904;52.322;10.232;2022-08-01T07:23:03;3.85;;;2.88;;
38089;SDS011;23904;52.322;10.232;2022-08-01T07:25:28;4.25;;;2.58;;
38089;SDS011;23904;52.322;10.232;2022-08-01T07:27:54;3.20;;;2.70;;
38089;SDS011;23904;52.322;10.232;2022-08-01T07:30:20;3.75;;;3.03;;
38089;SDS011;23904;52.322;10.232;2022-08-01T07:32:45;4.35;;;2.92;;
38089;SDS011;23904;52.322;10.232;2022-08-01T07:35:11;3.47;;;2.92;;
38089;SDS011;23904;52.322;10.232;2022-08-01T07:37:37;3.40;;;2.80;;
38089;SDS011;23904;52.322;10.232;2022-08-01T07:40:02;3.60;;;2.65;;
38089;SDS011;23904;52.322;10.232;2022-08-01T07:42:29;3.17;;;2.22;;
38089;SDS011;23904;52.322;10.232;2022-08-01T07:44:55;2.95;;;2.50;;
38089;SDS011;23904;52.322;10.232;2022-08-01T07:47:24;4.10;;;2.45;;
38089;SDS011;23904;52.322;10.232;2022-08-01T07:49:50;4.63;;;2.67;;
38089;SDS011;23904;52.322;10.232;2022-08-01T07:52:16;3.00;;;2.00;;
38089;SDS011;23904;52.322;10.232;2022-08-01T07:54:42;4.38;;;2.30;;
38089;SDS011;23904;52.322;10.232;2022-08-01T07:57:07;4.30;;;2.03;;
38089;SDS011;23904;52.322;10.232;2022-08-01T07:59:33;3.05;;;2.00;;
38089;SDS011;23904;52.322;10.232;2022-08-01T08:01:59;3.05;;;2.00;;
38089;SDS011;23904;52.322;10.232;2022-08-01T08:04:25;2.70;;;1.95;;
38089;SDS011;23904;52.322;10.232;2022-08-01T08:06:51;2.88;;;2.40;;
38089;SDS011;23904;52.322;10.232;2022-08-01T08:09:18;3.58;;;2.00;;
38089;SDS011;23904;52.322;10.232;2022-08-01T08:11:44;2.65;;;1.98;;
38089;SDS011;23904;52.322;10.232;2022-08-01T08:14:11;2.78;;;1.90;;
38089;SDS011;23904;52.322;10.232;2022-08-01T08:16:37;4.78;;;1.90;;
38089;SDS011;23904;52.322;10.232;2022-08-01T08:19:03;4.07;;;1.98;;
38089;SDS011;23904;52.322;10.232;2022-08-01T08:21:29;1.95;;;1.10;;
38089;SDS011;23904;52.322;10.232;2022-08-01T08:23:55;2.00;;;1.48;;
38089;SDS011;23904;52.322;10.232;2022-08-01T08:26:39;3.25;;;1.70;;
38089;SDS011;23904;52.322;10.232;2022-08-01T08:29:05;4.53;;;1.65;;
38089;SDS011;23904;52.322;10.232;2022-08-01T08:31:31;2.97;;;2.13;;
38089;SDS011;23904;52.322;10.232;2022-08-01T08:33:57;2.22;;;1.75;;
38089;SDS011;23904;52.322;10.232;2022-08-01T08:36:23;2.65;;;1.83;;
38089;SDS011;23904;52.322;10.232;2022-08-01T08:38:48;3.50;;;2.13;;
38089;SDS011;23904;52.322;10.232;2022-08-01T08:41:14;2.85;;;2.03;;
38089;SDS011;23904;52.322;10.232;2022-08-01T08:43:40;4.95;;;2.63;;
38089;SDS011;23904;52.322;10.232;2022-08-01T08:46:06;6.60;;;3.95;;
38089;SDS011;23904;52.322;10.232;2022-08-01T08:48:33;4.57;;;3.65;;
38089;SDS011;23904;52.322;10.232;2022-08-01T08:50:59;3.63;;;2.58;;
38089;SDS011;23904;52.322;10.232;2022-08-01T08:53:26;3.15;;;1.80;;
38089;SDS011;23904;52.322;10.232;2022-08-01T08:55:53;4.03;;;2.20;;
38089;SDS011;23904;52.322;10.232;2022-08-01T08:58:21;2.63;;;1.90;;
38089;SDS011;23904;52.322;10.232;2022-08-01T09:00:49;4.65;;;1.90;;
38089;SDS011;23904;52.322;10.232;2022-08-01T09:03:15;9.32;;;2.08;;
38089;SDS011;23904;52.322;10.232;2022-08-01T09:05:41;6.72;;;2.67;;
38089;SDS011;23904;52.322;10.232;2022-08-01T09:08:08;4.65;;;2.72;;
38089;SDS011;23904;52.322;10.232;2022-08-01T09:10:33;3.15;;;2.58;;
38089;SDS011;23904;52.322;10.232;2022-08-01T09:13:06;4.70;;;3.67;;
38089;SDS011;23904;52.322;10.232;2022-08-01T09:15:42;3.25;;;2.10;;
38089;SDS011;23904;52.322;10.232;2022-08-01T09:18:25;3.35;;;2.47;;
38089;SDS011;23904;52.322;10.232;2022-08-01T09:23:53;2.78;;;2.35;;
38089;SDS011;23904;52.322;10.232;2022-08-01T09:26:21;4.80;;;2.53;;
38089;SDS011;23904;52.322;10.232;2022-08-01T09:28:54;2.95;;;1.77;;
38089;SDS011;23904;52.322;10.232;2022-08-01T09:31:20;3.50;;;1.80;;
38089;SDS011;23904;52.322;10.232;2022-08-01T09:33:59;3.13;;;1.63;;
38089;SDS011;23904;52.322;10.232;2022-08-01T09:39:16;2.40;;;1.52;;
38089;SDS011;23904;52.322;10.232;2022-08-01T09:41:46;1.85;;;1.60;;
38089;SDS011;23904;52.322;10.232;2022-08-01T09:44:12;2.72;;;1.38;;
38089;SDS011;23904;52.322;10.232;2022-08-01T09:46:48;1.42;;;1.25;;
38089;SDS011;23904;52.322;10.232;2022-08-01T09:49:14;4.20;;;1.63;;
38089;SDS011;23904;52.322;10.232;2022-08-01T09:51:51;2.63;;;1.48;;
38089;SDS011;23904;52.322;10.232;2022-08-01T09:54:17;1.35;;;1.20;;
38089;SDS011;23904;52.322;10.232;2022-08-01T09:56:53;3.53;;;1.80;;
38089;SDS011;23904;52.322;10.232;2022-08-01T09:59:35;2.83;;;1.25;;
38089;SDS011;23904;52.322;10.232;2022-08-01T10:02:02;1.65;;;1.10;;
38089;SDS011;23904;52.322;10.232;2022-08-01T10:04:28;1.85;;;1.20;;
38089;SDS011;23904;52.322;10.232;2022-08-01T10:07:02;3.67;;;1.45;;
38089;SDS011;23904;52.322;10.232;2022-08-01T10:09:31;2.53;;;1.20;;
38089;SDS011;23904;52.322;10.232;2022-08-01T10:12:01;2.72;;;1.55;;
38089;SDS011;23904;52.322;10.232;2022-08-01T10:14:27;3.45;;;1.92;;
38089;SDS011;23904;52.322;10.232;2022-08-01T10:16:55;3.60;;;1.60;;
38089;SDS011;23904;52.322;10.232;2022-08-01T10:19:23;3.13;;;1.98;;
38089;SDS011;23904;52.322;10.232;2022-08-01T10:21:51;3.17;;;1.25;;
38089;SDS011;23904;52.322;10.232;2022-08-01T10:24:21;2.58;;;1.33;;
38089;SDS011;23904;52.322;10.232;2022-08-01T10:26:48;3.50;;;1.77;;
38089;SDS011;23904;52.322;10.232;2022-08-01T10:29:16;3.08;;;1.40;;
38089;SDS011;23904;52.322;10.232;2022-08-01T10:31:45;2.85;;;1.77;;
38089;SDS011;23904;52.322;10.232;2022-08-01T10:34:12;4.68;;;1.70;;
38089;SDS011;23904;52.322;10.232;2022-08-01T10:36:41;7.72;;;1.73;;
38089;SDS011;23904;52.322;10.232;2022-08-01T10:39:07;3.30;;;2.10;;
38089;SDS011;23904;52.322;10.232;2022-08-01T10:41:35;4.35;;;2.17;;
38089;SDS011;23904;52.322;10.232;2022-08-01T10:44:02;3.60;;;2.20;;
38089;SDS011;23904;52.322;10.232;2022-08-01T10:46:29;4.93;;;2.35;;
38089;SDS011;23904;52.322;10.232;2022-08-01T10:49:12;4.97;;;1.98;;
38089;SDS011;23904;52.322;10.232;2022-08-01T10:51:40;3.67;;;1.95;;
38089;SDS011;23904;52.322;10.232;2022-08-01T10:54:07;3.70;;;2.03;;
38089;SDS011;23904;52.322;10.232;2022-08-01T10:56:47;3.17;;;2.05;;
38089;SDS011;23904;52.322;10.232;2022-08-01T10:59:24;4.50;;;2.63;;
38089;SDS011;23904;52.322;10.232;2022-08-01T11:01:55;3.53;;;1.98;;
38089;SDS011;23904;52.322;10.232;2022-08-01T11:04:28;6.87;;;2.50;;
38089;SDS011;23904;52.322;10.232;2022-08-01T11:07:20;3.67;;;1.98;;
38089;SDS011;23904;52.322;10.232;2022-08-01T11:12:37;3.72;;;1.75;;
38089;SDS011;23904;52.322;10.232;2022-08-01T11:17:35;5.10;;;1.88;;
38089;SDS011;23904;52.322;10.232;2022-08-01T11:23:21;6.13;;;2.70;;
38089;SDS011;23904;52.322;10.232;2022-08-01T11:30:38;3.22;;;1.85;;
38089;SDS011;23904;52.322;10.232;2022-08-01T11:33:08;3.35;;;1.50;;
38089;SDS011;23904;52.322;10.232;2022-08-01T11:35:35;4.35;;;1.80;;
38089;SDS011;23904;52.322;10.232;2022-08-01T11:43:35;3.40;;;1.60;;
38089;SDS011;23904;52.322;10.232;2022-08-01T11:46:20;4.55;;;2.08;;
38089;SDS011;23904;52.322;10.232;2022-08-01T11:49:27;7.70;;;2.28;;
38089;SDS011;23904;52.322;10.232;2022-08-01T11:52:04;4.15;;;2.08;;
38089;SDS011;23904;52.322;10.232;2022-08-01T11:54:36;7.97;;;2.13;;
38089;SDS011;23904;52.322;10.232;2022-08-01T11:57:06;5.93;;;2.38;;
38089;SDS011;23904;52.322;10.232;2022-08-01T12:02:15;7.78;;;2.05;;
38089;SDS011;23904;52.322;10.232;2022-08-01T12:04:44;4.05;;;1.70;;
38089;SDS011;23904;52.322;10.232;2022-08-01T12:07:14;5.85;;;2.05;;
38089;SDS011;23904;52.322;10.232;2022-08-01T12:09:41;6.82;;;1.45;;
38089;SDS011;23904;52.322;10.232;2022-08-01T12:12:07;4.70;;;1.45;;
38089;SDS011;23904;52.322;10.232;2022-08-01T12:14:33;7.45;;;1.75;;
38089;SDS011;23904;52.322;10.232;2022-08-01T12:16:59;7.85;;;1.83;;
38089;SDS011;23904;52.322;10.232;2022-08-01T12:19:24;6.30;;;1.73;;
38089;SDS011;23904;52.322;10.232;2022-08-01T12:22:10;6.28;;;1.60;;
38089;SDS011;23904;52.322;10.232;2022-08-01T12:24:39;5.13;;;2.08;;
38089;SDS011;23904;52.322;10.232;2022-08-01T12:27:07;4.50;;;1.63;;
38089;SDS011;23904;52.322;10.232;2022-08-01T12:29:43;6.95;;;1.95;;
38089;SDS011;23904;52.322;10.232;2022-08-01T12:32:20;5.97;;;2.10;;
38089;SDS011;23904;52.322;10.232;2022-08-01T12:35:00;5.05;;;1.50;;
38089;SDS011;23904;52.322;10.232;2022-08-01T12:37:31;4.05;;;1.60;;
38089;SDS011;23904;52.322;10.232;2022-08-01T12:42:42;4.40;;;1.67;;
38089;SDS011;23904;52.322;10.232;2022-08-01T12:45:11;4.38;;;1.15;;
38089;SDS011;23904;52.322;10.232;2022-08-01T12:47:38;5.93;;;1.70;;
38089;SDS011;23904;52.322;10.232;2022-08-01T12:50:09;8.95;;;1.63;;
38089;SDS011;23904;52.322;10.232;2022-08-01T12:52:38;9.55;;;2.03;;
38089;SDS011;23904;52.322;10.232;2022-08-01T12:55:11;4.38;;;1.40;;
38089;SDS011;23904;52.322;10.232;2022-08-01T12:57:49;4.18;;;1.48;;
38089;SDS011;23904;52.322;10.232;2022-08-01T13:00:27;3.63;;;1.42;;
38089;SDS011;23904;52.322;10.232;2022-08-01T13:03:07;3.83;;;1.05;;
38089;SDS011;23904;52.322;10.232;2022-08-01T13:08:09;4.80;;;1.60;;
38089;SDS011;23904;52.322;10.232;2022-08-01T13:10:36;3.90;;;1.20;;
38089;SDS011;23904;52.322;10.232;2022-08-01T13:13:02;5.63;;;1.83;;
38089;SDS011;23904;52.322;10.232;2022-08-01T13:15:29;3.53;;;1.73;;
38089;SDS011;23904;52.322;10.232;2022-08-01T13:17:57;4.90;;;1.58;;
38089;SDS011;23904;52.322;10.232;2022-08-01T13:20:24;7.57;;;2.28;;
38089;SDS011;23904;52.322;10.232;2022-08-01T13:22:51;4.82;;;1.70;;
38089;SDS011;23904;52.322;10.232;2022-08-01T13:25:17;7.95;;;1.92;;
38089;SDS011;23904;52.322;10.232;2022-08-01T13:27:43;5.88;;;2.10;;
38089;SDS011;23904;52.322;10.232;2022-08-01T13:30:15;7.22;;;1.95;;
38089;SDS011;23904;52.322;10.232;2022-08-01T13:32:43;6.38;;;2.03;;
38089;SDS011;23904;52.322;10.232;2022-08-01T13:35:10;8.07;;;2.20;;
38089;SDS011;23904;52.322;10.232;2022-08-01T13:37:38;7.35;;;1.85;;
38089;SDS011;23904;52.322;10.232;2022-08-01T13:40:05;5.50;;;2.10;;
38089;SDS011;23904;52.322;10.232;2022-08-01T13:42:31;4.25;;;1.67;;
38089;SDS011;23904;52.322;10.232;2022-08-01T13:44:57;6.40;;;2.00;;
38089;SDS011;23904;52.322;10.232;2022-08-01T13:47:23;6.88;;;1.73;;
38089;SDS011;23904;52.322;10.232;2022-08-01T13:49:48;4.65;;;2.17;;
38089;SDS011;23904;52.322;10.232;2022-08-01T13:52:14;5.30;;;1.75;;
38089;SDS011;23904;52.322;10.232;2022-08-01T13:54:39;6.63;;;2.05;;
38089;SDS011;23904;52.322;10.232;2022-08-01T13:57:05;6.20;;;1.75;;
38089;SDS011;23904;52.322;10.232;2022-08-01T13:59:30;5.50;;;3.05;;
38089;SDS011;23904;52.322;10.232;2022-08-01T14:01:56;4.13;;;1.77;;
38089;SDS011;23904;52.322;10.232;2022-08-01T14:04:22;6.15;;;3.53;;
38089;SDS011;23904;52.322;10.232;2022-08-01T14:06:47;4.90;;;2.25;;
38089;SDS011;23904;52.322;10.232;2022-08-01T14:09:13;8.07;;;2.38;;
38089;SDS011;23904;52.322;10.232;2022-08-01T14:11:41;5.38;;;1.90;;
38089;SDS011;23904;52.322;10.232;2022-08-01T14:14:07;7.60;;;2.30;;
38089;SDS011;23904;52.322;10.232;2022-08-01T14:16:33;5.47;;;2.05;;
38089;SDS011;23904;52.322;10.232;2022-08-01T14:18:59;5.88;;;2.22;;
38089;SDS011;23904;52.322;10.232;2022-08-01T14:21:24;6.55;;;2.08;;
38089;SDS011;23904;52.322;10.232;2022-08-01T14:23:50;7.30;;;2.40;;
38089;SDS011;23904;52.322;10.232;2022-08-01T14:26:15;6.35;;;2.60;;
38089;SDS011;23904;52.322;10.232;2022-08-01T14:28:41;5.65;;;2.53;;
38089;SDS011;23904;52.322;10.232;2022-08-01T14:31:06;5.70;;;2.42;;
38089;SDS011;23904;52.322;10.232;2022-08-01T14:33:32;7.13;;;2.13;;
38089;SDS011;23904;52.322;10.232;2022-08-01T14:35:58;8.52;;;2.20;;
38089;SDS011;23904;52.322;10.232;2022-08-01T14:38:24;7.88;;;2.72;;
38089;SDS011;23904;52.322;10.232;2022-08-01T14:40:50;8.73;;;2.28;;
38089;SDS011;23904;52.322;10.232;2022-08-01T14:43:16;7.22;;;2.65;;
38089;SDS011;23904;52.322;10.232;2022-08-01T14:45:42;7.22;;;2.42;;
38089;SDS011;23904;52.322;10.232;2022-08-01T14:48:08;4.22;;;2.08;;
38089;SDS011;23904;52.322;10.232;2022-08-01T14:50:34;8.52;;;2.60;;
38089;SDS011;23904;52.322;10.232;2022-08-01T14:52:59;9.00;;;2.65;;
38089;SDS011;23904;52.322;10.232;2022-08-01T14:55:25;6.22;;;2.53;;
38089;SDS011;23904;52.322;10.232;2022-08-01T14:57:52;7.63;;;2.38;;
38089;SDS011;23904;52.322;10.232;2022-08-01T15:00:18;6.63;;;2.60;;
38089;SDS011;23904;52.322;10.232;2022-08-01T15:02:44;5.97;;;1.98;;
38089;SDS011;23904;52.322;10.232;2022-08-01T15:05:10;5.20;;;1.73;;
38089;SDS011;23904;52.322;10.232;2022-08-01T15:07:36;3.55;;;1.65;;
38089;SDS011;23904;52.322;10.232;2022-08-01T15:10:03;7.82;;;2.83;;
38089;SDS011;23904;52.322;10.232;2022-08-01T15:12:30;6.05;;;2.33;;
38089;SDS011;23904;52.322;10.232;2022-08-01T15:14:56;8.90;;;2.42;;
38089;SDS011;23904;52.322;10.232;2022-08-01T15:17:23;6.90;;;2.60;;
38089;SDS011;23904;52.322;10.232;2022-08-01T15:19:53;9.93;;;2.35;;
38089;SDS011;23904;52.322;10.232;2022-08-01T15:22:20;8.98;;;2.70;;